createdAt,value
2023-02-19T00:00:16.937Z,100030.95
2023-02-19T00:04:38.801Z,100030.80
2023-02-19T00:08:40.813Z,100026.83
2023-02-19T00:12:42.532Z,100032.20
2023-02-19T00:16:44.525Z,100025.17
2023-02-19T00:20:46.429Z,100013.09
2023-02-19T00:24:49.360Z,100009.88
2023-02-19T00:28:52.882Z,100019.16
2023-02-19T00:32:54.932Z,100025.23
2023-02-19T00:36:56.660Z,100028.54
2023-02-19T00:40:59.950Z,100023.48
2023-02-19T00:45:01.819Z,100020.08
2023-02-19T00:49:05.756Z,100017.71
2023-02-19T00:53:07.493Z,100008.98
2023-02-19T00:57:09.358Z,100010.52
2023-02-19T01:01:12.606Z,100003.58
2023-02-19T01:05:14.645Z,100003.13
2023-02-19T01:09:16.456Z,100002.80
2023-02-19T01:13:18.905Z,100000.95
2023-02-19T01:17:21.297Z,99988.27
2023-02-19T01:21:25.686Z,99979.55
2023-02-19T01:25:28.591Z,99976.35
2023-02-19T01:29:32.020Z,99974.35
2023-02-19T01:33:34.281Z,99966.03
2023-02-19T01:37:36.693Z,99960.13
2023-02-19T01:41:42.146Z,99954.39
2023-02-19T01:45:44.875Z,99941.92
2023-02-19T01:49:56.260Z,99930.25
2023-02-19T01:54:01.967Z,99917.45
2023-02-19T01:58:04.006Z,99913.86
2023-02-19T02:02:06.511Z,99911.11
2023-02-19T02:06:33.015Z,99906.92
2023-02-19T02:10:34.511Z,99902.48
2023-02-19T02:14:40.876Z,99905.29
2023-02-19T02:18:48.279Z,99895.85
2023-02-19T02:23:08.543Z,99887.80
2023-02-19T02:27:13.160Z,99897.90
2023-02-19T02:31:24.673Z,99890.83
2023-02-19T02:35:52.374Z,99889.49
2023-02-19T02:39:57.652Z,99884.88
2023-02-19T02:43:59.911Z,99879.33
2023-02-19T02:48:11.510Z,99878.91
2023-02-19T02:52:36.220Z,99881.92
2023-02-19T02:56:40.652Z,99870.04
2023-02-19T03:01:05.841Z,99860.28
2023-02-19T03:05:38.157Z,99857.27
2023-02-19T03:09:42.574Z,99853.35
2023-02-19T03:14:03.808Z,99838.77
2023-02-19T03:18:27.023Z,99822.92
2023-02-19T03:22:35.820Z,99825.11
2023-02-19T03:26:40.557Z,99833.77
2023-02-19T03:30:48.476Z,99833.67
2023-02-19T03:34:56.743Z,99838.87
2023-02-19T03:39:03.410Z,99842.35
2023-02-19T03:43:19.809Z,99838.92
2023-02-19T03:47:32.417Z,99837.98
2023-02-19T03:51:49.350Z,99840.27
2023-02-19T03:56:13.553Z,99836.97
2023-02-19T04:00:32.135Z,99828.42
2023-02-19T04:04:48.700Z,99828.80
2023-02-19T04:08:55.239Z,99830.67
2023-02-19T04:13:05.869Z,99829.70
2023-02-19T04:17:35.508Z,99823.28
2023-02-19T04:21:39.220Z,99814.98
2023-02-19T04:25:44.910Z,99813.46
2023-02-19T04:29:47.722Z,99814.52
2023-02-19T04:33:49.465Z,99812.94
2023-02-19T04:37:51.274Z,99814.10
2023-02-19T04:41:53.135Z,99809.68
2023-02-19T04:46:01.085Z,99807.41
2023-02-19T04:50:03.308Z,99806.96
2023-02-19T04:54:06.427Z,99807.61
2023-02-19T04:58:08.250Z,99799.21
2023-02-19T05:02:10.816Z,99804.14
2023-02-19T05:06:14.322Z,99800.48
2023-02-19T05:10:16.251Z,99790.41
2023-02-19T05:14:18.663Z,99789.85
2023-02-19T05:18:20.563Z,99781.32
2023-02-19T05:22:22.446Z,99774.80
2023-02-19T05:26:24.268Z,99775.06
2023-02-19T05:30:26.283Z,99770.14
2023-02-19T05:34:28.098Z,99776.49
2023-02-19T05:38:29.822Z,99772.83
2023-02-19T05:42:31.795Z,99768.80
2023-02-19T05:46:33.781Z,99767.94
2023-02-19T05:50:38.248Z,99779.12
2023-02-19T05:54:41.453Z,99776.12
2023-02-19T05:58:44.215Z,99777.56
2023-02-19T06:02:47.471Z,99773.94
2023-02-19T06:06:50.430Z,99772.95
2023-02-19T06:10:52.417Z,99773.39
2023-02-19T06:14:54.420Z,99775.19
2023-02-19T06:18:56.717Z,99775.26
2023-02-19T06:22:59.792Z,99780.08
2023-02-19T06:27:04.542Z,99792.83
2023-02-19T06:31:08.667Z,99796.95
2023-02-19T06:35:10.601Z,99801.98
2023-02-19T06:39:13.543Z,99802.98
2023-02-19T06:43:15.387Z,99800.67
2023-02-19T06:47:17.673Z,99807.70
2023-02-19T06:51:23.187Z,99818.10
2023-02-19T06:55:25.853Z,99830.23
2023-02-19T06:59:28.446Z,99829.05
2023-02-19T07:03:30.341Z,99828.79
2023-02-19T07:07:32.691Z,99846.44
2023-02-19T07:11:35.799Z,99859.55
2023-02-19T07:15:38.210Z,99870.27
2023-02-19T07:19:40.249Z,99882.33
2023-02-19T07:28:50.068Z,99913.13
2023-02-19T07:42:59.387Z,99936.84
2023-02-19T08:12:19.427Z,100005.59
2023-02-19T08:21:17.879Z,100016.16
2023-02-19T08:29:53.022Z,100019.15
2023-02-19T08:34:17.427Z,100030.50
2023-02-19T08:38:20.860Z,100039.27
2023-02-19T08:42:24.213Z,100039.58
2023-02-19T08:46:26.316Z,100055.81
2023-02-19T08:50:28.194Z,100057.43
2023-02-19T08:54:29.951Z,100064.81
2023-02-19T08:58:32.507Z,100071.30
2023-02-19T09:02:35.172Z,100074.45
2023-02-19T09:06:39.105Z,100080.84
2023-02-19T09:10:41.772Z,100085.90
2023-02-19T09:14:43.520Z,100098.42
2023-02-19T09:18:45.317Z,100102.41
2023-02-19T09:22:47.067Z,100109.41
2023-02-19T09:26:49.758Z,100115.08
2023-02-19T09:30:51.572Z,100127.00
2023-02-19T09:34:53.345Z,100137.90
2023-02-19T09:38:54.931Z,100135.40
2023-02-19T09:42:56.918Z,100147.16
2023-02-19T09:47:00.452Z,100143.95
2023-02-19T09:51:02.963Z,100152.22
2023-02-19T09:55:37.420Z,100155.11
2023-02-19T09:59:58.534Z,100164.69
2023-02-19T10:04:00.259Z,100179.24
2023-02-19T10:08:06.494Z,100188.57
2023-02-19T10:12:15.659Z,100201.85
2023-02-19T10:16:23.579Z,100214.83
2023-02-19T10:20:27.386Z,100222.04
2023-02-19T10:24:30.316Z,100228.33
2023-02-19T10:28:35.793Z,100240.30
2023-02-19T10:32:42.118Z,100234.89
2023-02-19T10:36:46.576Z,100236.21
2023-02-19T10:40:48.551Z,100243.14
2023-02-19T10:45:01.284Z,100244.78
2023-02-19T10:49:19.034Z,100253.45
2023-02-19T10:53:25.507Z,100266.15
2023-02-19T10:57:33.472Z,100267.71
2023-02-19T11:01:35.222Z,100272.77
2023-02-19T11:05:38.607Z,100273.95
2023-02-19T11:09:44.941Z,100269.70
2023-02-19T11:13:46.693Z,100270.52
2023-02-19T11:17:58.283Z,100270.11
2023-02-19T11:22:01.140Z,100272.41
2023-02-19T11:26:06.719Z,100272.99
2023-02-19T11:30:44.770Z,100277.55
2023-02-19T11:34:47.589Z,100285.48
2023-02-19T11:38:49.280Z,100290.58
2023-02-19T11:43:03.052Z,100295.49
2023-02-19T11:47:26.210Z,100293.70
2023-02-19T11:51:38.517Z,100301.55
2023-02-19T11:55:56.794Z,100305.33
2023-02-19T12:00:24.258Z,100309.37
2023-02-19T12:04:37.683Z,100307.59
2023-02-19T12:08:39.216Z,100313.64
2023-02-19T12:13:04.949Z,100319.77
2023-02-19T12:17:21.972Z,100327.80
2023-02-19T12:21:42.678Z,100336.21
2023-02-19T12:25:59.406Z,100338.90
2023-02-19T12:30:13.198Z,100336.98
2023-02-19T12:34:29.920Z,100348.16
2023-02-19T12:38:43.421Z,100358.55
2023-02-19T12:42:51.300Z,100353.70
2023-02-19T12:46:57.757Z,100355.17
2023-02-19T12:51:09.194Z,100348.63
2023-02-19T12:55:31.923Z,100354.02
2023-02-19T12:59:43.136Z,100367.48
2023-02-19T13:04:00.118Z,100366.97
2023-02-19T13:08:12.198Z,100378.20
2023-02-19T13:12:21.489Z,100370.75
2023-02-19T13:16:24.429Z,100379.96
2023-02-19T13:20:36.363Z,100384.00
2023-02-19T13:24:42.859Z,100375.52
2023-02-19T13:28:53.607Z,100386.73
2023-02-19T13:33:11.492Z,100383.02
2023-02-19T13:37:15.029Z,100375.75
2023-02-19T13:41:27.238Z,100382.02
2023-02-19T13:45:37.455Z,100388.61
2023-02-19T13:49:41.436Z,100384.55
2023-02-19T13:53:47.363Z,100389.37
2023-02-19T13:57:49.497Z,100393.95
2023-02-19T14:01:51.135Z,100401.05
2023-02-19T14:06:02.390Z,100416.65
2023-02-19T14:10:10.556Z,100420.58
2023-02-19T14:14:38.669Z,100422.89
2023-02-19T14:18:42.588Z,100422.33
2023-02-19T14:22:56.356Z,100436.02
2023-02-19T14:26:59.781Z,100447.51
2023-02-19T14:31:28.630Z,100451.66
2023-02-19T14:35:41.219Z,100467.80
2023-02-19T14:39:44.030Z,100472.23
2023-02-19T14:43:50.021Z,100478.29
2023-02-19T14:47:55.886Z,100478.91
2023-02-19T14:52:03.523Z,100480.89
2023-02-19T14:56:14.291Z,100485.66
2023-02-19T15:00:28.841Z,100485.48
2023-02-19T15:04:36.045Z,100495.66
2023-02-19T15:08:42.593Z,100492.05
2023-02-19T15:12:53.196Z,100505.70
2023-02-19T15:17:00.121Z,100520.86
2023-02-19T15:21:05.030Z,100522.39
2023-02-19T15:25:07.635Z,100518.17
2023-02-19T15:29:11.977Z,100529.31
2023-02-19T15:33:19.492Z,100526.80
2023-02-19T15:37:22.576Z,100535.66
2023-02-19T15:41:28.060Z,100540.33
2023-02-19T15:45:40.862Z,100540.64
2023-02-19T15:49:49.367Z,100555.05
2023-02-19T15:53:58.228Z,100561.87
2023-02-19T15:58:29.689Z,100570.77
2023-02-19T16:02:32.816Z,100576.42
2023-02-19T16:06:51.372Z,100584.90
2023-02-19T16:10:55.319Z,100588.31
2023-02-19T16:14:57.134Z,100594.96
2023-02-19T16:18:59.352Z,100596.92
2023-02-19T16:23:03.535Z,100603.46
2023-02-19T16:27:07.192Z,100608.54
2023-02-19T16:31:14.153Z,100622.40
2023-02-19T16:35:41.333Z,100630.45
2023-02-19T16:39:43.168Z,100626.85
2023-02-19T16:43:45.224Z,100629.52
2023-02-19T16:47:50.519Z,100635.07
2023-02-19T16:51:54.105Z,100635.86
2023-02-19T16:55:56.325Z,100645.38
2023-02-19T16:59:58.002Z,100661.25
2023-02-19T17:04:03.692Z,100674.35
2023-02-19T17:08:17.464Z,100679.06
2023-02-19T17:12:23.563Z,100687.22
2023-02-19T17:16:31.063Z,100690.63
2023-02-19T17:20:35.794Z,100690.93
2023-02-19T17:24:38.747Z,100693.24
2023-02-19T17:28:42.669Z,100692.61
2023-02-19T17:32:45.452Z,100704.23
2023-02-19T17:36:48.368Z,100708.96
2023-02-19T17:40:50.257Z,100718.36
2023-02-19T17:44:53.344Z,100725.53
2023-02-19T17:48:55.719Z,100730.63
2023-02-19T17:53:00.317Z,100735.14
2023-02-19T17:57:02.701Z,100740.39
2023-02-19T18:01:05.136Z,100744.54
2023-02-19T18:05:07.877Z,100744.77
2023-02-19T18:09:14.711Z,100749.76
2023-02-19T18:13:16.667Z,100751.45
2023-02-19T18:17:20.112Z,100756.19
2023-02-19T18:21:24.706Z,100760.69
2023-02-19T18:25:27.004Z,100765.71
2023-02-19T18:29:30.536Z,100775.36
2023-02-19T18:33:33.734Z,100777.31
2023-02-19T18:37:36.001Z,100784.41
2023-02-19T18:41:37.656Z,100796.14
2023-02-19T18:45:40.237Z,100798.14
2023-02-19T18:49:49.882Z,100802.09
2023-02-19T18:53:52.145Z,100802.59
2023-02-19T18:57:55.035Z,100811.82
2023-02-19T19:01:57.911Z,100811.36
2023-02-19T19:06:00.721Z,100806.55
2023-02-19T19:10:05.567Z,100800.16
2023-02-19T19:14:09.071Z,100799.02
2023-02-19T19:18:12.596Z,100799.54
2023-02-19T19:22:16.014Z,100803.91
2023-02-19T19:26:18.903Z,100815.89
2023-02-19T19:30:22.484Z,100820.09
2023-02-19T19:34:24.564Z,100823.98
2023-02-19T19:38:29.330Z,100830.20
2023-02-19T19:42:31.373Z,100829.63
2023-02-19T19:46:33.979Z,100830.49
2023-02-19T19:50:36.074Z,100828.84
2023-02-19T19:54:42.688Z,100835.09
2023-02-19T19:58:44.912Z,100833.05
2023-02-19T20:02:47.258Z,100837.98
2023-02-19T20:06:50.349Z,100843.02
2023-02-19T20:10:52.251Z,100843.95
2023-02-19T20:14:54.927Z,100844.30
2023-02-19T20:18:56.900Z,100836.86
2023-02-19T20:22:59.204Z,100841.80
2023-02-19T20:27:02.179Z,100845.48
2023-02-19T20:31:04.521Z,100847.41
2023-02-19T20:35:06.502Z,100849.92
2023-02-19T20:39:08.779Z,100851.04
2023-02-19T20:43:12.609Z,100858.86
2023-02-19T20:47:15.953Z,100868.91
2023-02-19T20:51:18.439Z,100871.73
2023-02-19T20:55:23.098Z,100882.34
2023-02-19T20:59:30.082Z,100898.89
2023-02-19T21:03:32.770Z,100905.45
2023-02-19T21:07:34.984Z,100911.61
2023-02-19T21:11:37.980Z,100903.39
2023-02-19T21:15:40.603Z,100903.34
2023-02-19T21:19:42.583Z,100904.33
2023-02-19T21:23:45.141Z,100915.77
2023-02-19T21:27:47.202Z,100914.30
2023-02-19T21:31:51.348Z,100919.49
2023-02-19T21:35:53.348Z,100921.89
2023-02-19T21:44:32.633Z,100923.66
2023-02-19T21:48:34.681Z,100930.20
2023-02-19T21:52:37.041Z,100937.89
2023-02-19T21:56:39.747Z,100946.97
2023-02-19T22:00:42.530Z,100957.02
2023-02-19T22:04:46.465Z,100960.50
2023-02-19T22:08:48.615Z,100968.80
2023-02-19T22:17:45.019Z,100971.23
2023-02-19T22:22:24.555Z,100969.30
2023-02-19T22:26:33.404Z,100971.98
2023-02-19T22:30:36.759Z,100963.50
2023-02-19T22:34:41.440Z,100958.77
2023-02-19T22:38:46.383Z,100954.00
2023-02-19T22:42:53.972Z,100953.67
2023-02-19T22:46:56.781Z,100954.41
2023-02-19T22:51:01.807Z,100956.70
2023-02-19T22:55:04.327Z,100955.25
2023-02-19T22:59:06.910Z,100951.55
2023-02-19T23:03:09.053Z,100955.38
2023-02-19T23:07:11.073Z,100952.95
2023-02-19T23:11:20.107Z,100945.62
2023-02-19T23:15:23.020Z,100947.70
2023-02-19T23:19:24.910Z,100950.73
2023-02-19T23:23:28.557Z,100952.46
2023-02-19T23:27:31.712Z,100944.10
2023-02-19T23:31:33.624Z,100933.06
2023-02-19T23:35:35.420Z,100920.55
2023-02-19T23:39:37.233Z,100918.07
2023-02-19T23:43:39.141Z,100908.48
2023-02-19T23:47:41.013Z,100906.94
2023-02-19T23:51:44.598Z,100906.33
2023-02-19T23:55:46.753Z,100902.09
2023-02-19T23:59:49.374Z,100890.23
